Time;durP1;ratioP1;P1;durP2;ratioP2;P2;SDS_P1;SDS_P2;PMS_P1;PMS_P2;Temp;Humidity;BMP_temperature;BMP_pressure;BME280_temperature;BME280_humidity;BME280_pressure;Samples;Min_cycle;Max_cycle;Signal;HPM_P1;HPM_P2
2021/09/06 00:00:59;;;;;;;23.50;13.27;;;16.00;1.00;;;;;;5033670;28;20949;-77
2021/09/06 00:03:29;;;;;;;22.53;13.30;;;16.00;1.00;;;;;;5025790;28;20474;-77
2021/09/06 00:06:11;;;;;;;27.37;13.40;;;16.00;1.00;;;;;;5025491;28;20418;-77
2021/09/06 00:08:37;;;;;;;23.93;12.43;;;16.00;1.00;;;;;;5014685;28;20558;-77
2021/09/06 00:11:17;;;;;;;19.10;11.37;;;15.90;1.00;;;;;;5038055;28;20952;-77
2021/09/06 00:13:43;;;;;;;25.00;11.50;;;15.90;1.00;;;;;;5014555;28;20165;-77
2021/09/06 00:16:09;;;;;;;23.50;12.33;;;15.90;1.00;;;;;;5018765;28;20398;-77
2021/09/06 00:18:35;;;;;;;20.40;11.67;;;15.90;1.00;;;;;;5014802;28;20181;-77
2021/09/06 00:21:03;;;;;;;23.00;11.80;;;15.90;1.00;;;;;;5025451;28;20519;-77
2021/09/06 00:23:29;;;;;;;19.07;11.43;;;15.90;1.00;;;;;;5034015;28;20437;-77
2021/09/06 00:25:59;;;;;;;22.93;10.93;;;15.80;1.00;;;;;;5033743;28;20405;-78
2021/09/06 00:28:35;;;;;;;23.30;11.50;;;15.80;1.00;;;;;;5033947;28;20411;-78
2021/09/06 00:31:13;;;;;;;28.40;11.60;;;15.80;1.00;;;;;;5032467;28;20433;-78
2021/09/06 00:33:53;;;;;;;18.00;11.53;;;15.80;1.00;;;;;;5023467;28;20832;-78
2021/09/06 00:36:53;;;;;;;18.87;12.03;;;15.70;1.00;;;;;;5014387;28;20411;-79
2021/09/06 00:39:35;;;;;;;17.73;11.03;;;15.70;1.00;;;;;;5029375;28;20512;-78
2021/09/06 00:42:11;;;;;;;19.10;11.43;;;15.70;1.00;;;;;;5032877;28;20405;-78
2021/09/06 00:44:41;;;;;;;20.43;11.53;;;15.60;1.00;;;;;;5033861;28;20376;-78
2021/09/06 00:47:07;;;;;;;19.33;12.17;;;15.60;1.00;;;;;;5024171;28;20391;-78
2021/09/06 00:49:33;;;;;;;19.37;11.47;;;15.60;1.00;;;;;;5028706;28;20906;-78
2021/09/06 00:51:59;;;;;;;21.63;11.30;;;15.60;1.00;;;;;;5025180;28;20387;-78
2021/09/06 00:54:29;;;;;;;20.50;11.77;;;15.50;1.00;;;;;;5014218;28;20181;-78
2021/09/06 00:56:59;;;;;;;20.73;11.83;;;15.50;1.00;;;;;;5013768;28;20410;-78
2021/09/06 00:59:35;;;;;;;24.37;12.90;;;15.60;1.00;;;;;;5026602;28;20390;-78
2021/09/06 01:02:05;;;;;;;19.70;12.10;;;15.50;1.00;;;;;;5032804;28;20924;-78
2021/09/06 01:04:53;;;;;;;23.13;12.47;;;15.50;1.00;;;;;;5032097;28;20794;-78
2021/09/06 01:07:19;;;;;;;21.30;12.23;;;15.40;1.00;;;;;;5025182;28;20403;-78
2021/09/06 01:09:47;;;;;;;20.00;11.60;;;15.40;1.00;;;;;;5033145;28;20444;-78
2021/09/06 01:12:17;;;;;;;22.03;11.97;;;15.40;1.00;;;;;;5023153;28;20761;-78
2021/09/06 01:14:47;;;;;;;24.57;12.17;;;15.40;1.00;;;;;;5013890;28;20906;-78
2021/09/06 01:17:17;;;;;;;24.50;13.07;;;15.40;1.00;;;;;;5023408;28;20896;-78
2021/09/06 01:19:43;;;;;;;25.03;12.37;;;15.30;1.00;;;;;;5027952;28;20412;-78
2021/09/06 01:22:29;;;;;;;19.57;10.97;;;15.30;1.00;;;;;;5015259;28;20426;-78
2021/09/06 01:25:06;;;;;;;26.13;12.30;;;15.20;1.00;;;;;;5030006;28;20180;-78
2021/09/06 01:27:32;;;;;;;20.53;12.33;;;15.20;1.00;;;;;;5035480;28;20919;-78
2021/09/06 01:29:58;;;;;;;26.40;12.43;;;15.20;1.00;;;;;;5035541;28;20467;-78
2021/09/06 01:32:29;;;;;;;23.87;13.23;;;15.20;1.00;;;;;;5037222;28;20370;-78
2021/09/06 01:34:55;;;;;;;22.70;12.93;;;15.20;1.00;;;;;;5034839;28;20406;-78
2021/09/06 01:37:23;;;;;;;20.30;11.80;;;15.10;1.00;;;;;;5035864;28;20444;-78
2021/09/06 01:39:49;;;;;;;24.60;12.83;;;15.10;1.00;;;;;;5036754;28;20192;-78
2021/09/06 01:42:17;;;;;;;21.80;12.80;;;15.10;1.00;;;;;;5026335;28;20426;-78
2021/09/06 01:44:47;;;;;;;22.23;12.00;;;15.10;1.00;;;;;;5017225;28;20492;-78
2021/09/06 01:47:41;;;;;;;20.43;11.17;;;15.10;1.00;;;;;;5017267;28;20439;-78
2021/09/06 01:50:07;;;;;;;20.10;11.27;;;15.10;1.00;;;;;;5025120;28;20378;-78
2021/09/06 01:52:47;;;;;;;24.33;12.03;;;15.00;1.00;;;;;;5024240;28;20461;-78
2021/09/06 01:55:17;;;;;;;22.30;12.10;;;15.00;1.00;;;;;;5037425;28;20456;-78
2021/09/06 01:57:47;;;;;;;25.50;13.03;;;15.10;1.00;;;;;;5022609;28;20382;-78
2021/09/06 02:00:18;;;;;;;24.10;13.07;;;14.90;1.00;;;;;;5020398;28;20458;-78
2021/09/06 02:02:44;;;;;;;24.80;12.60;;;15.00;1.00;;;;;;5015511;28;20826;-78
2021/09/06 02:05:17;;;;;;;20.90;12.10;;;14.90;1.00;;;;;;5033448;28;20428;-78
2021/09/06 02:07:53;;;;;;;23.13;12.73;;;14.90;1.00;;;;;;5034498;28;20242;-78
2021/09/06 02:10:35;;;;;;;22.07;12.10;;;14.90;1.00;;;;;;5032671;28;20497;-77
2021/09/06 02:13:05;;;;;;;22.30;12.93;;;14.90;1.00;;;;;;5017051;28;20502;-76
2021/09/06 02:15:35;;;;;;;21.70;12.53;;;14.80;1.00;;;;;;5015767;28;20914;-77
2021/09/06 02:18:17;;;;;;;19.67;12.00;;;14.80;1.00;;;;;;5016891;28;20875;-77
2021/09/06 02:20:43;;;;;;;20.40;11.67;;;14.80;1.00;;;;;;5024916;28;20436;-77
2021/09/06 02:23:10;;;;;;;21.23;12.60;;;14.70;1.00;;;;;;5034416;28;20784;-77
2021/09/06 02:25:36;;;;;;;23.60;11.90;;;14.70;1.00;;;;;;5029657;28;20412;-78
2021/09/06 02:28:01;;;;;;;19.47;12.07;;;14.70;1.00;;;;;;5017822;28;20780;-78
2021/09/06 02:30:27;;;;;;;21.00;12.13;;;14.70;1.00;;;;;;5025031;28;20402;-78
2021/09/06 02:32:53;;;;;;;22.67;13.50;;;14.70;1.00;;;;;;5022862;28;20435;-78
2021/09/06 02:35:19;;;;;;;22.07;13.00;;;14.70;1.00;;;;;;5018875;28;20227;-78
2021/09/06 02:37:47;;;;;;;23.33;12.60;;;14.70;1.00;;;;;;5017169;28;20188;-78
2021/09/06 02:40:18;;;;;;;20.60;12.47;;;14.60;1.00;;;;;;5035290;28;20191;-76
2021/09/06 02:42:48;;;;;;;21.97;12.40;;;14.60;1.00;;;;;;5035344;28;21022;-77
2021/09/06 02:45:14;;;;;;;20.80;11.67;;;14.60;1.00;;;;;;5035739;28;20457;-77
2021/09/06 02:47:43;;;;;;;24.00;12.30;;;14.60;1.00;;;;;;5035426;28;20613;-76
2021/09/06 02:50:17;;;;;;;22.27;12.10;;;14.60;1.00;;;;;;5034729;28;20678;-77
2021/09/06 02:52:44;;;;;;;25.67;13.20;;;14.60;1.00;;;;;;5035427;28;20414;-77
2021/09/06 02:55:10;;;;;;;26.03;13.40;;;14.60;1.00;;;;;;5033784;28;20430;-77
2021/09/06 02:57:36;;;;;;;22.53;12.53;;;14.50;1.00;;;;;;5035868;28;20391;-77
2021/09/06 03:00:02;;;;;;;25.47;12.23;;;14.50;1.00;;;;;;5034206;28;20255;-77
2021/09/06 03:02:29;;;;;;;21.20;12.03;;;14.50;1.00;;;;;;5017730;28;20542;-76
2021/09/06 03:05:23;;;;;;;21.67;12.40;;;14.40;1.00;;;;;;5034668;28;20459;-77
2021/09/06 03:08:17;;;;;;;19.43;12.37;;;14.40;1.00;;;;;;5026757;28;20411;-77
2021/09/06 03:10:43;;;;;;;21.60;12.17;;;14.40;1.00;;;;;;5027157;28;20437;-77
2021/09/06 03:13:11;;;;;;;21.43;12.50;;;14.40;1.00;;;;;;5035519;28;20473;-77
2021/09/06 03:15:59;;;;;;;20.20;11.40;;;14.40;1.00;;;;;;5035484;28;20366;-77
2021/09/06 03:18:24;;;;;;;20.90;11.77;;;14.30;1.00;;;;;;5033900;28;20754;-77
2021/09/06 03:20:50;;;;;;;24.13;13.50;;;14.30;1.00;;;;;;5028270;28;20426;-77
2021/09/06 03:23:23;;;;;;;27.70;12.87;;;14.30;1.00;;;;;;5017665;28;20231;-76
2021/09/06 03:25:53;;;;;;;22.27;12.30;;;14.30;1.00;;;;;;5035441;28;20187;-76
2021/09/06 03:28:29;;;;;;;28.60;12.87;;;14.20;1.00;;;;;;5023554;28;20794;-76
2021/09/06 03:31:23;;;;;;;24.33;12.97;;;14.20;1.00;;;;;;5024255;28;20427;-76
2021/09/06 03:33:53;;;;;;;23.80;11.77;;;14.20;1.00;;;;;;5033640;28;20394;-77
2021/09/06 03:36:20;;;;;;;23.97;13.00;;;14.20;1.00;;;;;;5032344;28;22624;-77
2021/09/06 03:39:11;;;;;;;23.33;12.03;;;14.20;1.00;;;;;;5015084;28;20474;-77
2021/09/06 03:41:41;;;;;;;18.10;11.00;;;14.10;1.00;;;;;;5019623;28;20384;-78
2021/09/06 03:44:11;;;;;;;22.93;11.67;;;14.10;1.00;;;;;;5034775;28;20945;-78
2021/09/06 03:46:54;;;;;;;27.63;13.47;;;14.10;1.00;;;;;;5034510;28;20897;-78
2021/09/06 03:49:23;;;;;;;25.30;13.23;;;14.10;1.00;;;;;;5033403;28;20410;-78
2021/09/06 03:51:53;;;;;;;24.97;12.80;;;14.00;1.00;;;;;;5030186;28;20419;-78
2021/09/06 03:54:29;;;;;;;25.83;14.33;;;14.00;1.00;;;;;;5033964;28;20478;-78
2021/09/06 03:56:59;;;;;;;23.70;12.27;;;14.10;1.00;;;;;;5034931;28;20746;-78
2021/09/06 03:59:35;;;;;;;21.20;12.30;;;14.00;1.00;;;;;;5034254;28;20394;-78
2021/09/06 04:02:05;;;;;;;23.13;12.37;;;14.00;1.00;;;;;;5021068;28;20410;-80
2021/09/06 04:07:53;;;;;;;23.37;12.07;;;13.90;1.00;;;;;;5022898;28;20414;-77
2021/09/06 04:10:41;;;;;;;24.67;13.37;;;13.90;1.00;;;;;;5019297;28;20394;-77
2021/09/06 04:13:06;;;;;;;27.67;13.47;;;13.90;1.00;;;;;;5028008;28;20181;-76
2021/09/06 04:15:32;;;;;;;27.47;12.67;;;13.90;1.00;;;;;;5033759;28;20422;-76
2021/09/06 04:17:58;;;;;;;24.77;12.73;;;13.90;1.00;;;;;;5034032;28;20236;-76
2021/09/06 04:20:29;;;;;;;22.10;12.77;;;13.90;1.00;;;;;;5026351;28;20549;-75
2021/09/06 04:22:56;;;;;;;22.90;12.73;;;13.90;1.00;;;;;;5029268;28;20554;-76
2021/09/06 04:25:29;;;;;;;21.43;13.00;;;13.80;1.00;;;;;;5032836;28;20430;-76
2021/09/06 04:28:05;;;;;;;40.33;11.87;;;13.80;1.00;;;;;;5018141;28;20514;-77
2021/09/06 04:30:31;;;;;;;23.73;13.50;;;13.80;1.00;;;;;;5014150;28;20453;-75
2021/09/06 04:33:17;;;;;;;27.83;12.57;;;13.80;1.00;;;;;;5026286;28;20443;-80
2021/09/06 04:35:42;;;;;;;21.50;12.30;;;13.80;1.00;;;;;;5014402;28;20412;-79
2021/09/06 04:38:17;;;;;;;22.27;13.60;;;13.80;1.00;;;;;;5015734;28;20526;-79
2021/09/06 04:40:59;;;;;;;24.80;12.50;;;13.80;1.00;;;;;;5033968;28;20164;-79
2021/09/06 04:43:29;;;;;;;24.73;12.63;;;13.70;1.00;;;;;;5033451;28;20532;-78
2021/09/06 04:45:59;;;;;;;34.33;13.60;;;13.70;1.00;;;;;;5034127;28;20858;-78
2021/09/06 04:48:35;;;;;;;34.13;12.43;;;13.70;1.00;;;;;;5033926;28;20399;-78
2021/09/06 04:51:01;;;;;;;26.00;12.67;;;13.70;1.00;;;;;;5033053;28;20897;-77
2021/09/06 04:53:29;;;;;;;31.83;12.77;;;13.70;1.00;;;;;;5023876;28;20469;-77
2021/09/06 04:56:29;;;;;;;32.67;13.23;;;13.70;1.00;;;;;;5033622;28;20612;-77
2021/09/06 04:58:59;;;;;;;27.13;13.43;;;13.70;1.00;;;;;;5033601;28;20418;-78
2021/09/06 05:01:25;;;;;;;37.10;14.33;;;13.70;1.00;;;;;;5023595;28;20753;-77
2021/09/06 05:03:53;;;;;;;24.23;12.20;;;13.70;1.00;;;;;;5021248;28;20509;-77
2021/09/06 05:06:29;;;;;;;28.60;13.47;;;13.70;1.00;;;;;;5017841;28;20625;-77
2021/09/06 05:08:57;;;;;;;26.70;14.23;;;13.70;1.00;;;;;;5022001;28;20724;-77
2021/09/06 05:11:23;;;;;;;24.23;12.53;;;13.70;1.00;;;;;;5025249;28;20389;-77
2021/09/06 05:13:49;;;;;;;32.07;14.90;;;13.70;1.00;;;;;;5034460;28;20429;-78
2021/09/06 05:16:23;;;;;;;24.40;13.30;;;13.70;1.00;;;;;;5029926;28;20461;-77
2021/09/06 05:18:50;;;;;;;26.13;13.97;;;;;;;;;;5033825;28;20426;-77
2021/09/06 05:21:17;;;;;;;27.57;14.37;;;13.70;1.00;;;;;;5030346;28;20433;-77
2021/09/06 05:23:53;;;;;;;25.97;13.40;;;13.70;1.00;;;;;;5037371;28;20548;-77
2021/09/06 05:26:19;;;;;;;22.80;13.03;;;13.70;1.00;;;;;;5035995;28;20776;-76
2021/09/06 05:28:45;;;;;;;23.23;13.00;;;13.80;1.00;;;;;;5027854;28;20427;-77
2021/09/06 05:31:13;;;;;;;24.10;13.03;;;13.80;1.00;;;;;;5029562;28;20498;-77
2021/09/06 05:33:59;;;;;;;25.80;12.97;;;13.80;1.00;;;;;;5036895;28;20526;-77
2021/09/06 05:39:46;;;;;;;24.77;13.73;;;13.90;1.00;;;;;;5020415;28;20427;-77
2021/09/06 05:42:12;;;;;;;25.47;13.00;;;13.90;1.00;;;;;;5027280;28;20390;-77
2021/09/06 05:44:38;;;;;;;29.97;13.33;;;13.90;1.00;;;;;;5035927;28;20214;-77
2021/09/06 05:47:06;;;;;;;24.13;12.80;;;13.90;1.00;;;;;;5026771;28;20165;-78
2021/09/06 05:49:41;;;;;;;25.07;13.27;;;14.00;1.00;;;;;;5024116;28;20165;-77
2021/09/06 05:52:23;;;;;;;27.07;13.87;;;14.10;1.00;;;;;;5036351;28;20460;-77
2021/09/06 05:54:59;;;;;;;25.47;13.10;;;14.10;1.00;;;;;;5037487;28;20778;-77
2021/09/06 05:57:47;;;;;;;28.13;13.63;;;14.10;1.00;;;;;;5024817;28;20769;-78
2021/09/06 06:00:29;;;;;;;29.60;14.30;;;14.20;1.00;;;;;;5029117;28;20968;-77
2021/09/06 06:02:55;;;;;;;30.33;13.87;;;14.30;1.00;;;;;;5032452;28;20453;-77
2021/09/06 06:05:23;;;;;;;27.03;13.33;;;14.40;1.00;;;;;;5016627;28;20432;-77
2021/09/06 06:07:53;;;;;;;27.67;14.10;;;14.50;1.00;;;;;;5029817;28;20180;-77
2021/09/06 06:10:23;;;;;;;27.97;14.90;;;14.50;1.00;;;;;;5024941;28;20431;-77
2021/09/06 06:12:49;;;;;;;25.97;14.80;;;14.70;1.00;;;;;;5026412;28;20417;-79
2021/09/06 06:15:15;;;;;;;29.50;15.37;;;14.70;1.00;;;;;;5031461;28;20505;-80
2021/09/06 06:17:42;;;;;;;30.60;15.90;;;14.80;1.00;;;;;;5035871;28;20219;-80
2021/09/06 06:20:18;;;;;;;28.77;14.27;;;14.80;1.00;;;;;;5031871;28;20204;-79
2021/09/06 06:22:45;;;;;;;23.60;13.80;;;15.00;1.00;;;;;;5023084;28;20597;-79
2021/09/06 06:25:12;;;;;;;27.80;15.17;;;15.10;1.00;;;;;;5033904;28;20398;-80
2021/09/06 06:27:47;;;;;;;30.53;15.17;;;15.10;1.00;;;;;;5035399;28;20753;-79
2021/09/06 06:30:41;;;;;;;31.70;14.67;;;15.20;1.00;;;;;;5036300;28;20910;-79
2021/09/06 06:33:06;;;;;;;25.63;14.60;;;15.30;1.00;;;;;;5036183;28;20407;-79
2021/09/06 06:35:32;;;;;;;27.77;13.60;;;15.40;1.00;;;;;;5036216;28;20399;-79
2021/09/06 06:37:58;;;;;;;27.93;14.70;;;15.40;1.00;;;;;;5035505;28;20604;-79
2021/09/06 06:40:23;;;;;;;33.07;17.73;;;15.50;1.00;;;;;;5035258;28;20192;-79
2021/09/06 06:42:49;;;;;;;35.83;16.50;;;15.60;1.00;;;;;;5035498;28;20540;-79
2021/09/06 06:45:15;;;;;;;29.43;15.30;;;;;;;;;;5035057;28;20279;-79
2021/09/06 06:47:41;;;;;;;35.37;15.10;;;15.80;1.00;;;;;;5035224;28;20184;-79
2021/09/06 06:50:07;;;;;;;27.73;15.37;;;16.00;1.00;;;;;;5035057;28;20829;-79
2021/09/06 06:52:32;;;;;;;28.80;14.70;;;16.00;1.00;;;;;;5033936;28;20175;-79
2021/09/06 06:54:59;;;;;;;34.30;14.80;;;16.30;1.00;;;;;;5033794;28;20567;-79
2021/09/06 06:57:24;;;;;;;26.80;15.77;;;16.30;1.00;;;;;;5033725;28;20636;-79
2021/09/06 06:59:50;;;;;;;31.90;16.83;;;16.40;1.00;;;;;;5035335;28;20374;-79
2021/09/06 07:02:16;;;;;;;25.33;14.73;;;16.60;1.00;;;;;;5034730;28;20144;-79
2021/09/06 07:04:41;;;;;;;34.37;16.90;;;16.60;1.00;;;;;;5034648;28;20339;-78
2021/09/06 07:07:07;;;;;;;34.40;16.80;;;16.70;1.00;;;;;;5034920;28;20240;-79
2021/09/06 07:09:33;;;;;;;29.83;15.80;;;;;;;;;;5033251;28;20227;-79
2021/09/06 07:12:00;;;;;;;36.80;16.13;;;16.90;1.00;;;;;;5034766;28;20166;-79
2021/09/06 07:14:26;;;;;;;29.47;15.73;;;;;;;;;;5034765;28;20414;-79
2021/09/06 07:16:52;;;;;;;29.80;16.40;;;17.20;1.00;;;;;;5034926;28;20384;-79
2021/09/06 07:19:17;;;;;;;28.57;15.50;;;17.40;1.00;;;;;;5026094;28;20436;-78
2021/09/06 07:21:43;;;;;;;31.30;16.30;;;17.40;1.00;;;;;;5034169;28;20185;-79
2021/09/06 07:24:11;;;;;;;29.57;15.30;;;17.50;1.00;;;;;;5033127;28;20237;-79
2021/09/06 07:26:37;;;;;;;35.53;15.80;;;17.60;1.00;;;;;;5033569;28;20181;-79
2021/09/06 07:29:05;;;;;;;34.70;16.27;;;17.70;1.00;;;;;;5022534;28;20415;-78
2021/09/06 07:31:35;;;;;;;29.60;16.50;;;17.80;1.00;;;;;;5015030;28;20187;-77
2021/09/06 07:34:01;;;;;;;33.97;14.83;;;17.80;1.00;;;;;;5014511;28;20415;-77
2021/09/06 07:36:26;;;;;;;27.10;14.93;;;17.90;1.00;;;;;;5014488;28;20410;-77
2021/09/06 07:38:52;;;;;;;33.30;15.30;;;18.20;1.00;;;;;;5014379;28;20190;-77
2021/09/06 07:41:17;;;;;;;39.07;14.80;;;18.20;1.00;;;;;;5014455;28;20190;-77
2021/09/06 07:43:44;;;;;;;27.37;14.70;;;18.30;1.00;;;;;;5014619;28;20199;-78
2021/09/06 07:46:10;;;;;;;28.70;14.60;;;18.40;1.00;;;;;;5014309;28;20239;-78
2021/09/06 07:48:35;;;;;;;30.30;14.33;;;18.50;1.00;;;;;;5013134;28;20480;-78
2021/09/06 07:51:01;;;;;;;31.17;14.30;;;18.60;1.00;;;;;;5014067;28;20188;-78
2021/09/06 07:53:27;;;;;;;26.03;13.87;;;18.70;1.00;;;;;;5014248;28;20164;-78
2021/09/06 07:55:53;;;;;;;28.00;14.40;;;18.80;1.00;;;;;;5012957;28;20184;-78
2021/09/06 07:58:19;;;;;;;42.97;14.80;;;18.90;1.00;;;;;;5014417;28;20640;-78
2021/09/06 08:00:46;;;;;;;36.33;15.50;;;19.00;1.00;;;;;;5013944;28;20407;-78
2021/09/06 08:03:12;;;;;;;27.23;15.83;;;19.00;1.00;;;;;;5012898;28;20208;-79
2021/09/06 08:05:38;;;;;;;30.00;15.60;;;;;;;;;;5013455;28;20481;-78
2021/09/06 08:08:04;;;;;;;28.33;13.93;;;19.30;1.00;;;;;;5013908;28;20168;-78
2021/09/06 08:10:29;;;;;;;23.27;13.73;;;19.40;1.00;;;;;;5012406;28;20423;-78
2021/09/06 08:12:55;;;;;;;26.67;14.67;;;19.50;1.00;;;;;;5013879;28;20399;-78
2021/09/06 08:15:21;;;;;;;27.70;14.70;;;19.60;1.00;;;;;;5014140;28;20172;-78
2021/09/06 08:17:53;;;;;;;26.80;13.93;;;19.70;1.00;;;;;;5014070;28;20421;-78
2021/09/06 08:20:19;;;;;;;28.57;14.53;;;19.90;1.00;;;;;;5021911;28;20443;-78
2021/09/06 08:22:45;;;;;;;28.10;13.83;;;20.00;1.00;;;;;;5020777;28;20459;-78
2021/09/06 08:25:12;;;;;;;23.67;14.00;;;20.00;1.00;;;;;;5013576;28;20185;-78
2021/09/06 08:27:38;;;;;;;26.23;13.53;;;20.10;1.00;;;;;;5013647;28;20393;-78
2021/09/06 08:30:05;;;;;;;28.90;14.40;;;20.30;1.00;;;;;;5013960;28;20426;-78
2021/09/06 08:32:31;;;;;;;24.37;14.23;;;;;;;;;;5013473;28;20950;-78
2021/09/06 08:34:57;;;;;;;30.60;14.43;;;20.50;1.00;;;;;;5013794;28;20414;-78
2021/09/06 08:37:22;;;;;;;21.30;12.13;;;20.40;1.00;;;;;;5013350;28;20457;-78
2021/09/06 08:39:49;;;;;;;28.93;13.37;;;20.70;1.00;;;;;;5028559;28;20204;-78
2021/09/06 08:42:53;;;;;;;26.90;12.80;;;20.90;1.00;;;;;;5020982;28;20623;-79
2021/09/06 08:45:25;;;;;;;24.73;12.50;;;21.00;1.00;;;;;;5031739;28;20428;-78
2021/09/06 08:47:52;;;;;;;23.03;13.70;;;21.00;1.00;;;;;;5012218;28;20562;-78
2021/09/06 08:50:18;;;;;;;21.70;12.77;;;21.20;1.00;;;;;;5013474;28;20454;-77
2021/09/06 08:52:43;;;;;;;27.80;13.33;;;21.30;1.00;;;;;;5013404;28;20406;-77
2021/09/06 08:55:09;;;;;;;24.53;12.97;;;21.40;1.00;;;;;;5013053;28;20162;-77
2021/09/06 08:57:35;;;;;;;34.23;12.90;;;21.40;1.00;;;;;;5013310;28;20160;-77
2021/09/06 09:00:05;;;;;;;23.50;12.67;;;21.40;1.00;;;;;;5013563;28;20515;-77
2021/09/06 09:02:35;;;;;;;23.00;12.07;;;21.60;1.00;;;;;;5013333;28;20192;-78
2021/09/06 09:05:04;;;;;;;19.23;11.90;;;21.70;1.00;;;;;;5013062;28;20373;-78
2021/09/06 09:07:30;;;;;;;23.50;12.63;;;21.80;1.00;;;;;;5013150;28;20414;-77
2021/09/06 09:09:56;;;;;;;20.67;12.47;;;21.90;1.00;;;;;;5012778;28;20434;-77
2021/09/06 09:12:23;;;;;;;26.20;12.57;;;22.00;1.00;;;;;;5013030;28;20450;-77
2021/09/06 09:14:52;;;;;;;20.00;12.00;;;22.00;1.00;;;;;;5013474;28;20374;-77
2021/09/06 09:17:18;;;;;;;19.27;12.73;;;22.00;1.00;;;;;;5013073;28;20868;-78
2021/09/06 09:19:45;;;;;;;19.63;12.13;;;22.30;1.00;;;;;;5012139;28;20442;-78
2021/09/06 09:22:19;;;;;;;18.87;12.03;;;22.20;1.00;;;;;;5013436;28;20512;-78
2021/09/06 09:24:56;;;;;;;22.43;12.33;;;22.30;1.00;;;;;;5012995;28;20736;-78
2021/09/06 09:27:33;;;;;;;20.80;12.60;;;22.60;1.00;;;;;;5012848;28;20432;-78
2021/09/06 09:30:00;;;;;;;27.77;11.97;;;22.60;1.00;;;;;;5013295;28;20428;-78
2021/09/06 09:32:25;;;;;;;19.10;12.40;;;22.70;1.00;;;;;;5012900;28;20907;-78
2021/09/06 09:34:52;;;;;;;18.20;11.43;;;;;;;;;;5013028;28;20400;-78
2021/09/06 09:37:27;;;;;;;19.63;11.97;;;22.90;1.00;;;;;;5013284;28;20169;-78
2021/09/06 09:39:55;;;;;;;18.77;12.00;;;23.00;1.00;;;;;;5012835;28;20523;-78
2021/09/06 09:42:21;;;;;;;21.57;10.87;;;;;;;;;;5012741;28;20406;-78
2021/09/06 09:44:53;;;;;;;16.53;11.17;;;23.40;1.00;;;;;;5013187;28;20408;-77
2021/09/06 09:47:20;;;;;;;18.93;10.47;;;23.40;1.00;;;;;;5012812;28;20785;-78
2021/09/06 09:49:48;;;;;;;21.87;10.77;;;23.40;1.00;;;;;;5013656;28;20432;-77
2021/09/06 09:52:14;;;;;;;16.80;10.80;;;23.50;1.00;;;;;;5016482;28;20384;-78
2021/09/06 09:54:40;;;;;;;18.73;11.17;;;;;;;;;;5016461;28;20488;-78
2021/09/06 09:57:06;;;;;;;16.63;10.80;;;23.90;1.00;;;;;;5016423;28;20390;-78
2021/09/06 09:59:32;;;;;;;17.53;11.63;;;24.00;1.00;;;;;;5016603;28;20404;-77
2021/09/06 10:02:13;;;;;;;24.83;11.90;;;24.00;1.00;;;;;;5016334;28;20164;-78
2021/09/06 10:05:01;;;;;;;17.10;10.80;;;24.10;1.00;;;;;;5016128;28;20739;-78
2021/09/06 10:07:31;;;;;;;15.60;11.00;;;24.20;1.00;;;;;;5016141;28;20422;-78
2021/09/06 10:09:57;;;;;;;16.17;10.23;;;24.20;1.00;;;;;;5014482;28;20484;-78
2021/09/06 10:12:32;;;;;;;15.50;9.33;;;24.30;1.00;;;;;;5016065;28;20390;-78
2021/09/06 10:15:03;;;;;;;15.90;9.30;;;24.40;1.00;;;;;;5016464;28;20160;-78
2021/09/06 10:17:40;;;;;;;14.57;10.47;;;24.40;1.00;;;;;;5016110;28;20464;-78
2021/09/06 10:20:12;;;;;;;18.30;10.17;;;24.60;1.00;;;;;;5021498;28;20944;-78
2021/09/06 10:22:42;;;;;;;14.77;10.27;;;24.80;1.00;;;;;;5017256;28;20461;-78
2021/09/06 10:25:11;;;;;;;17.37;10.90;;;24.80;1.00;;;;;;5015774;28;20423;-77
2021/09/06 10:27:49;;;;;;;14.57;9.87;;;24.90;1.00;;;;;;5015610;28;20921;-77
2021/09/06 10:30:14;;;;;;;21.90;10.30;;;25.10;1.00;;;;;;5016270;28;20441;-77
2021/09/06 10:32:44;;;;;;;16.57;10.93;;;25.10;1.00;;;;;;5015649;28;20429;-78
2021/09/06 10:35:16;;;;;;;15.40;10.10;;;25.20;1.00;;;;;;5015683;28;20188;-78
2021/09/06 10:37:43;;;;;;;16.60;10.10;;;;;;;;;;5015991;28;20406;-78
2021/09/06 10:40:11;;;;;;;15.87;9.93;;;25.20;1.00;;;;;;5015336;28;20482;-78
2021/09/06 10:42:41;;;;;;;16.03;10.13;;;25.30;1.00;;;;;;5013932;28;20995;-77
2021/09/06 10:45:08;;;;;;;18.67;10.17;;;25.40;1.00;;;;;;5015819;28;20930;-77
2021/09/06 10:47:38;;;;;;;21.20;10.07;;;25.40;1.00;;;;;;5015455;28;20461;-77
2021/09/06 10:50:14;;;;;;;13.00;9.43;;;25.60;1.00;;;;;;5015348;28;20781;-78
2021/09/06 10:52:47;;;;;;;13.47;9.37;;;25.70;1.00;;;;;;5015335;28;20884;-78
2021/09/06 10:55:14;;;;;;;13.57;9.60;;;25.70;1.00;;;;;;5014040;28;20788;-78
2021/09/06 10:57:42;;;;;;;19.50;8.93;;;25.90;1.00;;;;;;5015165;28;20426;-78
2021/09/06 11:00:14;;;;;;;14.07;9.77;;;26.00;1.00;;;;;;5015531;28;20402;-78
2021/09/06 11:02:41;;;;;;;21.83;9.67;;;26.10;1.00;;;;;;5012717;28;20495;-77
2021/09/06 11:05:08;;;;;;;13.80;9.23;;;26.20;1.00;;;;;;5015178;28;20399;-78
2021/09/06 11:07:34;;;;;;;18.83;8.97;;;26.20;1.00;;;;;;5014922;28;20415;-78
2021/09/06 11:10:10;;;;;;;13.20;9.53;;;26.20;1.00;;;;;;5014690;28;20452;-78
2021/09/06 11:12:38;;;;;;;15.60;9.10;;;26.20;1.00;;;;;;5014831;28;20608;-78
2021/09/06 11:15:05;;;;;;;13.23;9.00;;;26.30;1.00;;;;;;5015252;28;20486;-78
2021/09/06 11:17:31;;;;;;;14.30;9.40;;;26.40;1.00;;;;;;5014661;28;20422;-78
2021/09/06 11:19:58;;;;;;;14.23;9.43;;;26.50;1.00;;;;;;5013554;28;20500;-78
2021/09/06 11:22:27;;;;;;;12.00;8.13;;;26.60;1.00;;;;;;5022161;28;20184;-78
2021/09/06 11:25:02;;;;;;;16.60;9.40;;;26.60;1.00;;;;;;5023786;28;20931;-78
2021/09/06 11:27:34;;;;;;;12.43;8.30;;;26.60;1.00;;;;;;5014692;28;20402;-78
2021/09/06 11:30:00;;;;;;;15.80;8.10;;;26.70;1.00;;;;;;5032550;28;20442;-77
2021/09/06 11:32:27;;;;;;;15.43;8.77;;;26.90;1.00;;;;;;5034379;28;20486;-77
2021/09/06 11:35:08;;;;;;;10.23;7.60;;;27.00;1.00;;;;;;5034173;28;20423;-77
2021/09/06 11:37:35;;;;;;;13.83;8.77;;;26.90;1.00;;;;;;5034154;28;20418;-77
2021/09/06 11:40:01;;;;;;;13.20;8.77;;;27.00;1.00;;;;;;5034162;28;20443;-77
2021/09/06 11:42:28;;;;;;;14.17;8.73;;;27.00;1.00;;;;;;5034129;28;20415;-77
2021/09/06 11:44:57;;;;;;;11.97;8.10;;;26.90;1.00;;;;;;5034192;28;20157;-78
2021/09/06 11:47:23;;;;;;;16.20;7.97;;;26.90;1.00;;;;;;5034725;28;20764;-78
2021/09/06 11:49:59;;;;;;;17.73;8.13;;;27.10;1.00;;;;;;5034050;28;20419;-78
2021/09/06 11:52:36;;;;;;;9.90;7.37;;;27.20;1.00;;;;;;5032698;28;20433;-78
2021/09/06 11:55:04;;;;;;;13.93;8.00;;;27.20;1.00;;;;;;5034071;28;20473;-78
2021/09/06 11:57:33;;;;;;;13.13;7.90;;;27.40;1.00;;;;;;5033822;28;20419;-78
2021/09/06 11:59:59;;;;;;;10.40;6.90;;;27.60;1.00;;;;;;5033748;28;20393;-78
2021/09/06 12:02:25;;;;;;;11.27;8.00;;;27.60;1.00;;;;;;5034048;28;20733;-78
2021/09/06 12:05:02;;;;;;;71.27;7.00;;;;;;;;;;5033510;28;20388;-78
2021/09/06 12:07:27;;;;;;;10.30;6.57;;;27.80;1.00;;;;;;5033675;28;20424;-78
2021/09/06 12:09:53;;;;;;;11.33;7.10;;;27.80;1.00;;;;;;5033336;28;20864;-78
2021/09/06 12:12:24;;;;;;;10.57;7.30;;;27.90;1.00;;;;;;5033128;28;20183;-77
2021/09/06 12:14:51;;;;;;;8.80;6.73;;;28.00;1.00;;;;;;5033642;28;20257;-77
2021/09/06 12:17:18;;;;;;;9.83;6.13;;;28.00;1.00;;;;;;5034394;28;20402;-77
2021/09/06 12:19:49;;;;;;;9.03;6.40;;;28.00;1.00;;;;;;5030797;28;20447;-78
2021/09/06 12:22:20;;;;;;;10.10;5.50;;;28.10;1.00;;;;;;5020818;28;20432;-78
2021/09/06 12:24:48;;;;;;;12.10;6.00;;;28.10;1.00;;;;;;5013689;28;20478;-78
2021/09/06 12:27:17;;;;;;;11.87;5.70;;;28.20;1.00;;;;;;5013620;28;20497;-78
2021/09/06 12:29:43;;;;;;;7.90;6.10;;;28.10;1.00;;;;;;5013490;28;20924;-78
2021/09/06 12:32:13;;;;;;;11.37;6.47;;;28.20;1.00;;;;;;5012661;28;20775;-78
2021/09/06 12:34:40;;;;;;;10.33;5.80;;;;;;;;;;5013508;28;20402;-78
2021/09/06 12:37:06;;;;;;;7.90;5.83;;;28.30;1.00;;;;;;5012198;28;20763;-78
2021/09/06 12:39:35;;;;;;;12.33;6.50;;;28.40;1.00;;;;;;5013370;28;20449;-78
2021/09/06 12:42:01;;;;;;;7.10;5.80;;;28.50;1.00;;;;;;5013399;28;20533;-78
2021/09/06 12:44:30;;;;;;;7.53;6.07;;;28.50;1.00;;;;;;5013279;28;20463;-78
2021/09/06 12:46:55;;;;;;;8.77;6.50;;;28.70;1.00;;;;;;5013680;28;20867;-78
2021/09/06 12:49:25;;;;;;;9.87;5.93;;;28.90;1.00;;;;;;5013239;28;20415;-78
2021/09/06 12:51:51;;;;;;;10.33;6.73;;;29.00;1.00;;;;;;5013333;28;20604;-78
2021/09/06 12:54:16;;;;;;;12.10;6.73;;;29.10;1.00;;;;;;5013388;28;20498;-78
2021/09/06 12:56:42;;;;;;;12.60;6.43;;;29.10;1.00;;;;;;5013222;28;20175;-78
2021/09/06 12:59:08;;;;;;;9.37;6.20;;;29.20;1.00;;;;;;5013260;28;20167;-78
2021/09/06 13:01:34;;;;;;;10.10;6.83;;;29.50;1.00;;;;;;5013555;28;20163;-78
2021/09/06 13:03:59;;;;;;;13.30;5.70;;;29.40;1.00;;;;;;5012867;28;20455;-78